sensor_id;sensor_type;location;lat;lon;timestamp;P1;durP1;ratioP1;P2;durP2;ratioP2
20090;SDS011;10205;49.678;6.560;2022-10-31T00:01:23;7.20;;;4.97;;
20090;SDS011;10205;49.678;6.560;2022-10-31T00:03:53;4.30;;;3.88;;
20090;SDS011;10205;49.678;6.560;2022-10-31T00:06:21;7.13;;;4.65;;
20090;SDS011;10205;49.678;6.560;2022-10-31T00:08:51;6.82;;;4.60;;
20090;SDS011;10205;49.678;6.560;2022-10-31T00:11:23;6.70;;;4.15;;
20090;SDS011;10205;49.678;6.560;2022-10-31T00:13:50;6.63;;;4.40;;
20090;SDS011;10205;49.678;6.560;2022-10-31T00:16:19;6.28;;;4.28;;
20090;SDS011;10205;49.678;6.560;2022-10-31T00:18:48;7.50;;;4.72;;
20090;SDS011;10205;49.678;6.560;2022-10-31T00:21:16;4.93;;;4.07;;
20090;SDS011;10205;49.678;6.560;2022-10-31T00:23:45;5.55;;;4.15;;
20090;SDS011;10205;49.678;6.560;2022-10-31T00:26:14;5.75;;;4.70;;
20090;SDS011;10205;49.678;6.560;2022-10-31T00:28:43;6.60;;;4.55;;
20090;SDS011;10205;49.678;6.560;2022-10-31T00:31:11;6.95;;;4.47;;
20090;SDS011;10205;49.678;6.560;2022-10-31T00:33:41;7.97;;;4.38;;
20090;SDS011;10205;49.678;6.560;2022-10-31T00:36:10;8.55;;;4.07;;
20090;SDS011;10205;49.678;6.560;2022-10-31T00:38:44;6.97;;;4.22;;
20090;SDS011;10205;49.678;6.560;2022-10-31T00:41:14;6.43;;;4.55;;
20090;SDS011;10205;49.678;6.560;2022-10-31T00:43:45;5.63;;;4.15;;
20090;SDS011;10205;49.678;6.560;2022-10-31T00:46:13;7.25;;;4.90;;
20090;SDS011;10205;49.678;6.560;2022-10-31T00:48:40;6.82;;;4.38;;
20090;SDS011;10205;49.678;6.560;2022-10-31T00:51:08;5.15;;;4.00;;
20090;SDS011;10205;49.678;6.560;2022-10-31T00:53:36;5.20;;;4.35;;
20090;SDS011;10205;49.678;6.560;2022-10-31T00:56:03;6.13;;;4.30;;
20090;SDS011;10205;49.678;6.560;2022-10-31T00:58:32;7.20;;;4.40;;
20090;SDS011;10205;49.678;6.560;2022-10-31T01:01:01;5.13;;;3.83;;
20090;SDS011;10205;49.678;6.560;2022-10-31T01:03:30;5.78;;;4.60;;
20090;SDS011;10205;49.678;6.560;2022-10-31T01:06:00;5.72;;;4.28;;
20090;SDS011;10205;49.678;6.560;2022-10-31T01:08:30;11.52;;;4.82;;
20090;SDS011;10205;49.678;6.560;2022-10-31T01:11:02;8.07;;;4.32;;
20090;SDS011;10205;49.678;6.560;2022-10-31T01:13:33;7.55;;;4.10;;
20090;SDS011;10205;49.678;6.560;2022-10-31T01:16:03;5.80;;;4.03;;
20090;SDS011;10205;49.678;6.560;2022-10-31T01:18:34;5.50;;;4.10;;
20090;SDS011;10205;49.678;6.560;2022-10-31T01:21:03;4.47;;;3.90;;
20090;SDS011;10205;49.678;6.560;2022-10-31T01:23:32;5.10;;;3.90;;
20090;SDS011;10205;49.678;6.560;2022-10-31T01:26:01;5.55;;;4.05;;
20090;SDS011;10205;49.678;6.560;2022-10-31T01:28:32;5.65;;;4.10;;
20090;SDS011;10205;49.678;6.560;2022-10-31T01:31:02;5.15;;;4.45;;
20090;SDS011;10205;49.678;6.560;2022-10-31T01:33:32;5.60;;;4.22;;
20090;SDS011;10205;49.678;6.560;2022-10-31T01:36:10;5.90;;;4.18;;
20090;SDS011;10205;49.678;6.560;2022-10-31T01:38:43;8.23;;;4.43;;
20090;SDS011;10205;49.678;6.560;2022-10-31T01:41:12;4.40;;;3.67;;
20090;SDS011;10205;49.678;6.560;2022-10-31T01:43:47;7.63;;;4.13;;
20090;SDS011;10205;49.678;6.560;2022-10-31T01:46:21;4.80;;;3.88;;
20090;SDS011;10205;49.678;6.560;2022-10-31T01:48:52;5.47;;;3.97;;
20090;SDS011;10205;49.678;6.560;2022-10-31T01:51:22;5.20;;;4.07;;
20090;SDS011;10205;49.678;6.560;2022-10-31T01:53:58;5.18;;;3.78;;
20090;SDS011;10205;49.678;6.560;2022-10-31T01:56:32;6.07;;;3.63;;
20090;SDS011;10205;49.678;6.560;2022-10-31T01:59:06;5.25;;;3.65;;
20090;SDS011;10205;49.678;6.560;2022-10-31T02:01:42;5.72;;;3.78;;
20090;SDS011;10205;49.678;6.560;2022-10-31T02:04:09;5.30;;;3.80;;
20090;SDS011;10205;49.678;6.560;2022-10-31T02:06:37;5.13;;;3.53;;
20090;SDS011;10205;49.678;6.560;2022-10-31T02:09:13;4.90;;;3.55;;
20090;SDS011;10205;49.678;6.560;2022-10-31T02:11:41;4.80;;;3.50;;
20090;SDS011;10205;49.678;6.560;2022-10-31T02:14:10;5.80;;;3.95;;
20090;SDS011;10205;49.678;6.560;2022-10-31T02:16:40;5.43;;;3.85;;
20090;SDS011;10205;49.678;6.560;2022-10-31T02:19:09;4.40;;;3.92;;
20090;SDS011;10205;49.678;6.560;2022-10-31T02:21:48;3.97;;;3.45;;
20090;SDS011;10205;49.678;6.560;2022-10-31T02:24:33;4.00;;;3.47;;
20090;SDS011;10205;49.678;6.560;2022-10-31T02:27:37;4.18;;;3.63;;
20090;SDS011;10205;49.678;6.560;2022-10-31T02:30:31;5.05;;;3.97;;
20090;SDS011;10205;49.678;6.560;2022-10-31T02:33:16;5.10;;;4.03;;
20090;SDS011;10205;49.678;6.560;2022-10-31T02:35:57;3.65;;;3.35;;
20090;SDS011;10205;49.678;6.560;2022-10-31T02:38:41;6.15;;;3.72;;
20090;SDS011;10205;49.678;6.560;2022-10-31T02:41:19;4.32;;;3.47;;
20090;SDS011;10205;49.678;6.560;2022-10-31T02:44:00;4.35;;;3.65;;
20090;SDS011;10205;49.678;6.560;2022-10-31T02:46:36;4.68;;;3.90;;
20090;SDS011;10205;49.678;6.560;2022-10-31T02:49:16;4.57;;;3.42;;
20090;SDS011;10205;49.678;6.560;2022-10-31T02:52:00;5.20;;;3.65;;
20090;SDS011;10205;49.678;6.560;2022-10-31T02:54:27;7.47;;;3.88;;
20090;SDS011;10205;49.678;6.560;2022-10-31T02:56:56;4.60;;;3.88;;
20090;SDS011;10205;49.678;6.560;2022-10-31T02:59:29;5.00;;;3.40;;
20090;SDS011;10205;49.678;6.560;2022-10-31T03:05:21;5.93;;;3.92;;
20090;SDS011;10205;49.678;6.560;2022-10-31T03:08:15;5.28;;;3.55;;
20090;SDS011;10205;49.678;6.560;2022-10-31T03:10:53;5.10;;;3.67;;
20090;SDS011;10205;49.678;6.560;2022-10-31T03:13:27;7.10;;;3.72;;
20090;SDS011;10205;49.678;6.560;2022-10-31T03:16:07;3.92;;;3.42;;
20090;SDS011;10205;49.678;6.560;2022-10-31T03:18:40;4.15;;;3.28;;
20090;SDS011;10205;49.678;6.560;2022-10-31T03:21:18;7.28;;;3.67;;
20090;SDS011;10205;49.678;6.560;2022-10-31T03:23:50;5.35;;;3.33;;
20090;SDS011;10205;49.678;6.560;2022-10-31T03:26:21;3.78;;;3.47;;
20090;SDS011;10205;49.678;6.560;2022-10-31T03:28:52;4.15;;;3.65;;
20090;SDS011;10205;49.678;6.560;2022-10-31T03:31:25;5.28;;;3.38;;
20090;SDS011;10205;49.678;6.560;2022-10-31T03:34:05;3.67;;;3.20;;
20090;SDS011;10205;49.678;6.560;2022-10-31T03:36:37;5.45;;;3.50;;
20090;SDS011;10205;49.678;6.560;2022-10-31T03:39:09;5.10;;;3.55;;
20090;SDS011;10205;49.678;6.560;2022-10-31T03:41:44;4.97;;;3.20;;
20090;SDS011;10205;49.678;6.560;2022-10-31T03:44:19;3.72;;;3.20;;
20090;SDS011;10205;49.678;6.560;2022-10-31T03:46:50;8.30;;;3.95;;
20090;SDS011;10205;49.678;6.560;2022-10-31T03:49:17;5.20;;;3.40;;
20090;SDS011;10205;49.678;6.560;2022-10-31T03:51:49;5.25;;;3.03;;
20090;SDS011;10205;49.678;6.560;2022-10-31T03:54:24;4.93;;;3.42;;
20090;SDS011;10205;49.678;6.560;2022-10-31T03:57:01;4.30;;;3.40;;
20090;SDS011;10205;49.678;6.560;2022-10-31T03:59:42;4.85;;;3.03;;
20090;SDS011;10205;49.678;6.560;2022-10-31T04:02:15;6.05;;;3.30;;
20090;SDS011;10205;49.678;6.560;2022-10-31T04:04:48;4.65;;;3.67;;
20090;SDS011;10205;49.678;6.560;2022-10-31T04:07:18;4.50;;;3.30;;
20090;SDS011;10205;49.678;6.560;2022-10-31T04:09:48;4.80;;;3.40;;
20090;SDS011;10205;49.678;6.560;2022-10-31T04:12:19;4.03;;;2.92;;
20090;SDS011;10205;49.678;6.560;2022-10-31T04:14:50;8.32;;;3.38;;
20090;SDS011;10205;49.678;6.560;2022-10-31T04:17:19;5.90;;;3.47;;
20090;SDS011;10205;49.678;6.560;2022-10-31T04:19:54;5.32;;;3.28;;
20090;SDS011;10205;49.678;6.560;2022-10-31T04:22:24;5.70;;;3.85;;
20090;SDS011;10205;49.678;6.560;2022-10-31T04:24:52;3.45;;;3.03;;
20090;SDS011;10205;49.678;6.560;2022-10-31T04:27:20;5.40;;;3.60;;
20090;SDS011;10205;49.678;6.560;2022-10-31T04:29:47;4.90;;;3.72;;
20090;SDS011;10205;49.678;6.560;2022-10-31T04:32:14;4.82;;;3.22;;
20090;SDS011;10205;49.678;6.560;2022-10-31T04:34:42;5.30;;;3.40;;
20090;SDS011;10205;49.678;6.560;2022-10-31T04:37:10;8.30;;;3.78;;
20090;SDS011;10205;49.678;6.560;2022-10-31T04:39:38;5.35;;;3.03;;
20090;SDS011;10205;49.678;6.560;2022-10-31T04:42:05;5.88;;;2.80;;
20090;SDS011;10205;49.678;6.560;2022-10-31T04:44:32;7.63;;;3.70;;
20090;SDS011;10205;49.678;6.560;2022-10-31T04:47:00;4.28;;;3.13;;
20090;SDS011;10205;49.678;6.560;2022-10-31T04:49:27;6.53;;;3.42;;
20090;SDS011;10205;49.678;6.560;2022-10-31T04:51:54;4.88;;;3.38;;
20090;SDS011;10205;49.678;6.560;2022-10-31T04:54:21;4.78;;;2.88;;
20090;SDS011;10205;49.678;6.560;2022-10-31T04:56:50;5.65;;;3.50;;
20090;SDS011;10205;49.678;6.560;2022-10-31T04:59:17;3.63;;;3.25;;
20090;SDS011;10205;49.678;6.560;2022-10-31T05:01:44;4.95;;;3.22;;
20090;SDS011;10205;49.678;6.560;2022-10-31T05:04:12;6.57;;;3.35;;
20090;SDS011;10205;49.678;6.560;2022-10-31T05:06:39;4.82;;;2.85;;
20090;SDS011;10205;49.678;6.560;2022-10-31T05:09:06;3.40;;;2.92;;
20090;SDS011;10205;49.678;6.560;2022-10-31T05:11:33;4.15;;;3.58;;
20090;SDS011;10205;49.678;6.560;2022-10-31T05:14:02;3.72;;;2.83;;
20090;SDS011;10205;49.678;6.560;2022-10-31T05:16:31;4.20;;;3.20;;
20090;SDS011;10205;49.678;6.560;2022-10-31T05:18:58;4.10;;;3.20;;
20090;SDS011;10205;49.678;6.560;2022-10-31T05:21:25;8.35;;;3.78;;
20090;SDS011;10205;49.678;6.560;2022-10-31T05:23:56;4.25;;;3.20;;
20090;SDS011;10205;49.678;6.560;2022-10-31T05:26:23;10.02;;;3.60;;
20090;SDS011;10205;49.678;6.560;2022-10-31T05:28:50;12.50;;;4.18;;
20090;SDS011;10205;49.678;6.560;2022-10-31T05:31:18;4.63;;;3.40;;
20090;SDS011;10205;49.678;6.560;2022-10-31T05:33:45;8.55;;;4.28;;
20090;SDS011;10205;49.678;6.560;2022-10-31T05:36:13;15.10;;;3.75;;
20090;SDS011;10205;49.678;6.560;2022-10-31T05:38:40;7.05;;;3.75;;
20090;SDS011;10205;49.678;6.560;2022-10-31T05:41:07;5.65;;;3.42;;
20090;SDS011;10205;49.678;6.560;2022-10-31T05:43:34;5.00;;;3.15;;
20090;SDS011;10205;49.678;6.560;2022-10-31T05:46:02;5.13;;;3.30;;
20090;SDS011;10205;49.678;6.560;2022-10-31T05:48:31;5.10;;;3.60;;
20090;SDS011;10205;49.678;6.560;2022-10-31T05:50:58;4.03;;;3.22;;
20090;SDS011;10205;49.678;6.560;2022-10-31T05:53:25;4.75;;;3.47;;
20090;SDS011;10205;49.678;6.560;2022-10-31T05:55:52;4.50;;;3.53;;
20090;SDS011;10205;49.678;6.560;2022-10-31T05:58:19;5.43;;;4.07;;
20090;SDS011;10205;49.678;6.560;2022-10-31T06:00:46;4.30;;;3.30;;
20090;SDS011;10205;49.678;6.560;2022-10-31T06:03:13;6.68;;;4.07;;
20090;SDS011;10205;49.678;6.560;2022-10-31T06:05:43;4.65;;;3.05;;
20090;SDS011;10205;49.678;6.560;2022-10-31T06:08:11;5.72;;;3.42;;
20090;SDS011;10205;49.678;6.560;2022-10-31T06:10:38;3.70;;;3.40;;
20090;SDS011;10205;49.678;6.560;2022-10-31T06:13:05;5.63;;;4.00;;
20090;SDS011;10205;49.678;6.560;2022-10-31T06:15:32;6.43;;;3.88;;
20090;SDS011;10205;49.678;6.560;2022-10-31T06:18:02;5.35;;;3.42;;
20090;SDS011;10205;49.678;6.560;2022-10-31T06:20:32;5.25;;;3.17;;
20090;SDS011;10205;49.678;6.560;2022-10-31T06:23:04;5.65;;;3.90;;
20090;SDS011;10205;49.678;6.560;2022-10-31T06:25:33;6.60;;;4.20;;
20090;SDS011;10205;49.678;6.560;2022-10-31T06:28:01;3.92;;;3.30;;
20090;SDS011;10205;49.678;6.560;2022-10-31T06:30:28;5.18;;;3.42;;
20090;SDS011;10205;49.678;6.560;2022-10-31T06:33:06;4.85;;;3.58;;
20090;SDS011;10205;49.678;6.560;2022-10-31T06:35:33;8.57;;;4.30;;
20090;SDS011;10205;49.678;6.560;2022-10-31T06:38:05;5.50;;;3.80;;
20090;SDS011;10205;49.678;6.560;2022-10-31T06:40:32;10.13;;;4.90;;
20090;SDS011;10205;49.678;6.560;2022-10-31T06:43:00;6.28;;;4.30;;
20090;SDS011;10205;49.678;6.560;2022-10-31T06:45:29;6.07;;;3.75;;
20090;SDS011;10205;49.678;6.560;2022-10-31T06:47:57;8.38;;;4.50;;
20090;SDS011;10205;49.678;6.560;2022-10-31T06:50:25;6.85;;;3.92;;
20090;SDS011;10205;49.678;6.560;2022-10-31T06:52:52;5.45;;;3.80;;
20090;SDS011;10205;49.678;6.560;2022-10-31T06:55:23;8.18;;;4.72;;
20090;SDS011;10205;49.678;6.560;2022-10-31T06:57:52;5.22;;;3.58;;
20090;SDS011;10205;49.678;6.560;2022-10-31T07:00:21;4.18;;;3.22;;
20090;SDS011;10205;49.678;6.560;2022-10-31T07:02:54;5.88;;;4.25;;
20090;SDS011;10205;49.678;6.560;2022-10-31T07:05:22;5.25;;;3.83;;
20090;SDS011;10205;49.678;6.560;2022-10-31T07:07:51;4.97;;;4.20;;
20090;SDS011;10205;49.678;6.560;2022-10-31T07:10:20;4.28;;;3.33;;
20090;SDS011;10205;49.678;6.560;2022-10-31T07:12:53;4.60;;;3.67;;
20090;SDS011;10205;49.678;6.560;2022-10-31T07:15:21;6.00;;;3.72;;
20090;SDS011;10205;49.678;6.560;2022-10-31T07:17:49;6.72;;;4.25;;
20090;SDS011;10205;49.678;6.560;2022-10-31T07:20:19;27.40;;;5.90;;
20090;SDS011;10205;49.678;6.560;2022-10-31T07:22:46;11.77;;;5.15;;
20090;SDS011;10205;49.678;6.560;2022-10-31T07:25:14;6.43;;;4.40;;
20090;SDS011;10205;49.678;6.560;2022-10-31T07:27:42;6.18;;;4.50;;
20090;SDS011;10205;49.678;6.560;2022-10-31T07:30:11;4.93;;;4.05;;
20090;SDS011;10205;49.678;6.560;2022-10-31T07:32:42;5.47;;;4.15;;
20090;SDS011;10205;49.678;6.560;2022-10-31T07:35:13;4.65;;;3.53;;
20090;SDS011;10205;49.678;6.560;2022-10-31T07:37:43;6.80;;;3.97;;
20090;SDS011;10205;49.678;6.560;2022-10-31T07:40:11;6.20;;;3.90;;
20090;SDS011;10205;49.678;6.560;2022-10-31T07:42:40;6.93;;;4.43;;
20090;SDS011;10205;49.678;6.560;2022-10-31T07:45:15;4.95;;;3.97;;
20090;SDS011;10205;49.678;6.560;2022-10-31T07:47:46;5.22;;;4.15;;
20090;SDS011;10205;49.678;6.560;2022-10-31T07:50:16;6.97;;;4.63;;
20090;SDS011;10205;49.678;6.560;2022-10-31T07:52:46;7.13;;;4.45;;
20090;SDS011;10205;49.678;6.560;2022-10-31T07:55:13;6.97;;;4.95;;
20090;SDS011;10205;49.678;6.560;2022-10-31T07:57:43;20.60;;;6.90;;
20090;SDS011;10205;49.678;6.560;2022-10-31T08:00:10;7.40;;;4.60;;
20090;SDS011;10205;49.678;6.560;2022-10-31T08:02:38;16.20;;;6.32;;
20090;SDS011;10205;49.678;6.560;2022-10-31T08:05:05;8.20;;;4.70;;
20090;SDS011;10205;49.678;6.560;2022-10-31T08:07:35;8.70;;;5.20;;
20090;SDS011;10205;49.678;6.560;2022-10-31T08:10:07;5.78;;;4.57;;
20090;SDS011;10205;49.678;6.560;2022-10-31T08:12:34;9.40;;;4.82;;
20090;SDS011;10205;49.678;6.560;2022-10-31T08:15:03;9.50;;;5.70;;
20090;SDS011;10205;49.678;6.560;2022-10-31T08:17:34;13.20;;;6.72;;
20090;SDS011;10205;49.678;6.560;2022-10-31T08:20:04;16.42;;;7.47;;
20090;SDS011;10205;49.678;6.560;2022-10-31T08:22:32;6.95;;;4.90;;
20090;SDS011;10205;49.678;6.560;2022-10-31T08:25:01;7.47;;;4.90;;
20090;SDS011;10205;49.678;6.560;2022-10-31T08:27:28;5.88;;;4.80;;
20090;SDS011;10205;49.678;6.560;2022-10-31T08:30:06;9.43;;;5.50;;
20090;SDS011;10205;49.678;6.560;2022-10-31T08:32:35;9.43;;;5.57;;
20090;SDS011;10205;49.678;6.560;2022-10-31T08:35:03;11.02;;;5.93;;
20090;SDS011;10205;49.678;6.560;2022-10-31T08:37:31;6.20;;;4.57;;
20090;SDS011;10205;49.678;6.560;2022-10-31T08:39:58;7.78;;;5.15;;
20090;SDS011;10205;49.678;6.560;2022-10-31T08:42:25;14.23;;;7.07;;
20090;SDS011;10205;49.678;6.560;2022-10-31T08:44:52;9.05;;;5.90;;
20090;SDS011;10205;49.678;6.560;2022-10-31T08:47:21;8.25;;;5.43;;
20090;SDS011;10205;49.678;6.560;2022-10-31T08:49:48;9.00;;;5.03;;
20090;SDS011;10205;49.678;6.560;2022-10-31T08:52:15;12.65;;;6.82;;
20090;SDS011;10205;49.678;6.560;2022-10-31T08:54:42;14.60;;;7.18;;
20090;SDS011;10205;49.678;6.560;2022-10-31T08:57:12;11.57;;;7.07;;
20090;SDS011;10205;49.678;6.560;2022-10-31T08:59:39;12.23;;;7.30;;
20090;SDS011;10205;49.678;6.560;2022-10-31T09:02:07;11.63;;;7.43;;
20090;SDS011;10205;49.678;6.560;2022-10-31T09:04:37;9.45;;;6.95;;
20090;SDS011;10205;49.678;6.560;2022-10-31T09:07:04;8.65;;;5.93;;
20090;SDS011;10205;49.678;6.560;2022-10-31T09:09:31;9.00;;;6.47;;
20090;SDS011;10205;49.678;6.560;2022-10-31T09:11:58;11.45;;;6.18;;
20090;SDS011;10205;49.678;6.560;2022-10-31T09:14:25;9.00;;;6.18;;
20090;SDS011;10205;49.678;6.560;2022-10-31T09:16:52;7.00;;;5.30;;
20090;SDS011;10205;49.678;6.560;2022-10-31T09:19:20;7.53;;;6.57;;
20090;SDS011;10205;49.678;6.560;2022-10-31T09:21:51;7.93;;;6.22;;
20090;SDS011;10205;49.678;6.560;2022-10-31T09:24:19;11.27;;;6.57;;
20090;SDS011;10205;49.678;6.560;2022-10-31T09:26:47;8.38;;;6.72;;
20090;SDS011;10205;49.678;6.560;2022-10-31T09:29:14;8.80;;;6.93;;
20090;SDS011;10205;49.678;6.560;2022-10-31T09:31:41;10.23;;;6.90;;
20090;SDS011;10205;49.678;6.560;2022-10-31T09:34:08;9.20;;;6.13;;
20090;SDS011;10205;49.678;6.560;2022-10-31T09:36:35;10.55;;;6.72;;
20090;SDS011;10205;49.678;6.560;2022-10-31T09:39:05;10.27;;;7.22;;
20090;SDS011;10205;49.678;6.560;2022-10-31T09:41:46;10.85;;;6.95;;
20090;SDS011;10205;49.678;6.560;2022-10-31T09:44:33;13.85;;;6.85;;
20090;SDS011;10205;49.678;6.560;2022-10-31T09:47:17;8.88;;;6.53;;
20090;SDS011;10205;49.678;6.560;2022-10-31T09:50:02;7.95;;;6.05;;
20090;SDS011;10205;49.678;6.560;2022-10-31T09:52:45;10.10;;;6.63;;
20090;SDS011;10205;49.678;6.560;2022-10-31T09:55:26;10.68;;;6.18;;
20090;SDS011;10205;49.678;6.560;2022-10-31T09:58:13;8.07;;;5.90;;
20090;SDS011;10205;49.678;6.560;2022-10-31T10:00:45;14.45;;;7.63;;
20090;SDS011;10205;49.678;6.560;2022-10-31T10:03:22;21.02;;;8.48;;
20090;SDS011;10205;49.678;6.560;2022-10-31T10:06:04;14.48;;;7.20;;
20090;SDS011;10205;49.678;6.560;2022-10-31T10:08:41;13.98;;;7.50;;
20090;SDS011;10205;49.678;6.560;2022-10-31T10:11:17;13.52;;;7.63;;
20090;SDS011;10205;49.678;6.560;2022-10-31T10:14:09;10.63;;;8.05;;
20090;SDS011;10205;49.678;6.560;2022-10-31T10:22:57;10.32;;;6.10;;
20090;SDS011;10205;49.678;6.560;2022-10-31T10:25:44;7.43;;;6.22;;
20090;SDS011;10205;49.678;6.560;2022-10-31T10:28:23;10.60;;;6.85;;
20090;SDS011;10205;49.678;6.560;2022-10-31T10:30:59;12.35;;;6.45;;
20090;SDS011;10205;49.678;6.560;2022-10-31T10:33:35;8.82;;;6.35;;
20090;SDS011;10205;49.678;6.560;2022-10-31T10:36:08;10.85;;;6.50;;
20090;SDS011;10205;49.678;6.560;2022-10-31T10:38:48;11.68;;;7.88;;
20090;SDS011;10205;49.678;6.560;2022-10-31T10:41:21;11.27;;;7.65;;
20090;SDS011;10205;49.678;6.560;2022-10-31T10:43:52;10.50;;;6.82;;
20090;SDS011;10205;49.678;6.560;2022-10-31T10:46:19;11.10;;;8.52;;
20090;SDS011;10205;49.678;6.560;2022-10-31T10:49:14;8.13;;;6.35;;
20090;SDS011;10205;49.678;6.560;2022-10-31T10:51:45;10.93;;;6.53;;
20090;SDS011;10205;49.678;6.560;2022-10-31T10:54:41;8.90;;;6.53;;
20090;SDS011;10205;49.678;6.560;2022-10-31T10:57:27;12.40;;;6.63;;
20090;SDS011;10205;49.678;6.560;2022-10-31T11:00:18;6.60;;;5.72;;
20090;SDS011;10205;49.678;6.560;2022-10-31T11:02:47;8.38;;;6.50;;
20090;SDS011;10205;49.678;6.560;2022-10-31T11:05:19;10.93;;;7.07;;
20090;SDS011;10205;49.678;6.560;2022-10-31T11:07:55;10.77;;;7.22;;
20090;SDS011;10205;49.678;6.560;2022-10-31T11:10:22;7.40;;;6.38;;
20090;SDS011;10205;49.678;6.560;2022-10-31T11:12:58;12.55;;;7.88;;
20090;SDS011;10205;49.678;6.560;2022-10-31T11:15:51;7.75;;;6.28;;
20090;SDS011;10205;49.678;6.560;2022-10-31T11:18:29;9.27;;;6.00;;
20090;SDS011;10205;49.678;6.560;2022-10-31T11:21:00;12.02;;;7.07;;
20090;SDS011;10205;49.678;6.560;2022-10-31T11:23:30;11.30;;;7.28;;
20090;SDS011;10205;49.678;6.560;2022-10-31T11:25:59;8.93;;;7.40;;
20090;SDS011;10205;49.678;6.560;2022-10-31T11:28:30;10.60;;;6.60;;
20090;SDS011;10205;49.678;6.560;2022-10-31T11:31:05;11.02;;;7.70;;
20090;SDS011;10205;49.678;6.560;2022-10-31T11:33:36;14.32;;;7.07;;
20090;SDS011;10205;49.678;6.560;2022-10-31T11:36:14;8.88;;;5.68;;
20090;SDS011;10205;49.678;6.560;2022-10-31T11:38:49;9.68;;;6.50;;
20090;SDS011;10205;49.678;6.560;2022-10-31T11:41:18;13.07;;;7.30;;
20090;SDS011;10205;49.678;6.560;2022-10-31T11:43:54;8.75;;;6.30;;
20090;SDS011;10205;49.678;6.560;2022-10-31T11:46:29;9.50;;;6.18;;
20090;SDS011;10205;49.678;6.560;2022-10-31T11:49:04;10.10;;;6.00;;
20090;SDS011;10205;49.678;6.560;2022-10-31T11:51:41;21.88;;;6.65;;
20090;SDS011;10205;49.678;6.560;2022-10-31T11:54:16;9.82;;;5.57;;
20090;SDS011;10205;49.678;6.560;2022-10-31T11:56:49;8.85;;;6.47;;
20090;SDS011;10205;49.678;6.560;2022-10-31T11:59:18;9.15;;;5.72;;
20090;SDS011;10205;49.678;6.560;2022-10-31T12:01:55;11.23;;;5.30;;
20090;SDS011;10205;49.678;6.560;2022-10-31T12:04:28;8.25;;;6.10;;
20090;SDS011;10205;49.678;6.560;2022-10-31T12:07:03;10.35;;;6.05;;
20090;SDS011;10205;49.678;6.560;2022-10-31T12:09:33;10.45;;;6.05;;
20090;SDS011;10205;49.678;6.560;2022-10-31T12:12:10;13.02;;;7.15;;
20090;SDS011;10205;49.678;6.560;2022-10-31T12:15:10;10.18;;;6.03;;
20090;SDS011;10205;49.678;6.560;2022-10-31T12:18:01;9.38;;;5.68;;
20090;SDS011;10205;49.678;6.560;2022-10-31T12:20:57;6.32;;;5.40;;
20090;SDS011;10205;49.678;6.560;2022-10-31T12:23:45;11.15;;;6.15;;
20090;SDS011;10205;49.678;6.560;2022-10-31T12:26:29;10.13;;;6.38;;
20090;SDS011;10205;49.678;6.560;2022-10-31T12:29:15;9.75;;;5.50;;
20090;SDS011;10205;49.678;6.560;2022-10-31T12:32:05;9.85;;;5.28;;
20090;SDS011;10205;49.678;6.560;2022-10-31T12:34:53;7.88;;;5.45;;
20090;SDS011;10205;49.678;6.560;2022-10-31T12:37:53;9.07;;;4.90;;
20090;SDS011;10205;49.678;6.560;2022-10-31T12:40:53;8.55;;;4.90;;
20090;SDS011;10205;49.678;6.560;2022-10-31T12:43:42;10.80;;;5.40;;
20090;SDS011;10205;49.678;6.560;2022-10-31T12:46:22;7.68;;;5.18;;
20090;SDS011;10205;49.678;6.560;2022-10-31T12:49:22;6.32;;;4.85;;
20090;SDS011;10205;49.678;6.560;2022-10-31T12:52:15;8.45;;;4.82;;
20090;SDS011;10205;49.678;6.560;2022-10-31T12:58:03;5.80;;;4.55;;
20090;SDS011;10205;49.678;6.560;2022-10-31T13:00:37;8.45;;;4.50;;
20090;SDS011;10205;49.678;6.560;2022-10-31T13:03:14;8.02;;;4.32;;
20090;SDS011;10205;49.678;6.560;2022-10-31T13:05:54;6.80;;;4.55;;
20090;SDS011;10205;49.678;6.560;2022-10-31T13:08:30;8.00;;;4.93;;
20090;SDS011;10205;49.678;6.560;2022-10-31T13:11:06;9.55;;;4.97;;
20090;SDS011;10205;49.678;6.560;2022-10-31T13:13:39;12.32;;;5.72;;
20090;SDS011;10205;49.678;6.560;2022-10-31T13:16:13;7.15;;;5.22;;
20090;SDS011;10205;49.678;6.560;2022-10-31T13:18:48;10.73;;;5.00;;
20090;SDS011;10205;49.678;6.560;2022-10-31T13:21:21;10.85;;;5.43;;
20090;SDS011;10205;49.678;6.560;2022-10-31T13:23:56;8.50;;;5.13;;
20090;SDS011;10205;49.678;6.560;2022-10-31T13:26:33;7.15;;;4.38;;
20090;SDS011;10205;49.678;6.560;2022-10-31T13:29:09;8.35;;;4.57;;
20090;SDS011;10205;49.678;6.560;2022-10-31T13:31:45;7.53;;;4.78;;
20090;SDS011;10205;49.678;6.560;2022-10-31T13:34:18;7.65;;;5.20;;
20090;SDS011;10205;49.678;6.560;2022-10-31T13:36:56;9.93;;;6.07;;
20090;SDS011;10205;49.678;6.560;2022-10-31T13:39:41;13.75;;;5.53;;
20090;SDS011;10205;49.678;6.560;2022-10-31T13:42:23;7.72;;;4.90;;
20090;SDS011;10205;49.678;6.560;2022-10-31T13:45:08;9.02;;;4.90;;
20090;SDS011;10205;49.678;6.560;2022-10-31T13:47:40;10.20;;;5.22;;
20090;SDS011;10205;49.678;6.560;2022-10-31T13:50:19;6.22;;;4.63;;
20090;SDS011;10205;49.678;6.560;2022-10-31T13:52:50;8.23;;;5.30;;
20090;SDS011;10205;49.678;6.560;2022-10-31T13:58:20;7.72;;;4.32;;
20090;SDS011;10205;49.678;6.560;2022-10-31T14:00:58;7.10;;;4.20;;
20090;SDS011;10205;49.678;6.560;2022-10-31T14:03:40;7.25;;;4.38;;
20090;SDS011;10205;49.678;6.560;2022-10-31T14:06:11;9.25;;;5.18;;
20090;SDS011;10205;49.678;6.560;2022-10-31T14:08:46;6.05;;;4.30;;
20090;SDS011;10205;49.678;6.560;2022-10-31T14:11:21;9.43;;;5.20;;
20090;SDS011;10205;49.678;6.560;2022-10-31T14:13:53;10.73;;;4.85;;
20090;SDS011;10205;49.678;6.560;2022-10-31T14:16:25;7.68;;;5.07;;
20090;SDS011;10205;49.678;6.560;2022-10-31T14:18:58;5.28;;;4.07;;
20090;SDS011;10205;49.678;6.560;2022-10-31T14:21:29;11.35;;;5.45;;
20090;SDS011;10205;49.678;6.560;2022-10-31T14:24:13;8.60;;;5.00;;
20090;SDS011;10205;49.678;6.560;2022-10-31T14:26:52;7.55;;;5.03;;
20090;SDS011;10205;49.678;6.560;2022-10-31T14:29:25;10.13;;;5.10;;
20090;SDS011;10205;49.678;6.560;2022-10-31T14:31:55;8.57;;;4.35;;
20090;SDS011;10205;49.678;6.560;2022-10-31T14:34:39;7.97;;;4.28;;
20090;SDS011;10205;49.678;6.560;2022-10-31T14:37:25;9.38;;;4.53;;
20090;SDS011;10205;49.678;6.560;2022-10-31T14:40:15;6.90;;;4.53;;
20090;SDS011;10205;49.678;6.560;2022-10-31T14:42:58;8.48;;;5.43;;
20090;SDS011;10205;49.678;6.560;2022-10-31T14:45:49;8.80;;;4.80;;
20090;SDS011;10205;49.678;6.560;2022-10-31T14:48:42;7.55;;;4.28;;
20090;SDS011;10205;49.678;6.560;2022-10-31T14:51:26;9.07;;;4.53;;
20090;SDS011;10205;49.678;6.560;2022-10-31T14:54:03;5.30;;;4.20;;
20090;SDS011;10205;49.678;6.560;2022-10-31T14:56:37;10.20;;;4.78;;
20090;SDS011;10205;49.678;6.560;2022-10-31T14:59:16;11.88;;;5.00;;
20090;SDS011;10205;49.678;6.560;2022-10-31T15:01:52;8.68;;;4.85;;
20090;SDS011;10205;49.678;6.560;2022-10-31T15:04:25;8.48;;;4.20;;
20090;SDS011;10205;49.678;6.560;2022-10-31T15:06:57;7.47;;;4.85;;
20090;SDS011;10205;49.678;6.560;2022-10-31T15:09:33;9.07;;;5.78;;
20090;SDS011;10205;49.678;6.560;2022-10-31T15:12:16;7.63;;;4.43;;
20090;SDS011;10205;49.678;6.560;2022-10-31T15:14:53;8.05;;;5.32;;
20090;SDS011;10205;49.678;6.560;2022-10-31T15:17:22;9.50;;;5.07;;
20090;SDS011;10205;49.678;6.560;2022-10-31T15:19:52;8.60;;;5.00;;
20090;SDS011;10205;49.678;6.560;2022-10-31T15:22:22;8.02;;;4.75;;
20090;SDS011;10205;49.678;6.560;2022-10-31T15:24:53;7.78;;;4.78;;
20090;SDS011;10205;49.678;6.560;2022-10-31T15:27:22;7.57;;;4.93;;
20090;SDS011;10205;49.678;6.560;2022-10-31T15:29:51;7.57;;;4.38;;
20090;SDS011;10205;49.678;6.560;2022-10-31T15:32:22;6.47;;;4.43;;
20090;SDS011;10205;49.678;6.560;2022-10-31T15:34:52;6.03;;;4.70;;
20090;SDS011;10205;49.678;6.560;2022-10-31T15:37:22;8.40;;;4.65;;